Overview Statistics Trail Chart Weather Telemetry Raw packets
 

This is the latest recevied weather packets stored in our database for station/object N7ZEF. If no packets are shown the sender has not sent any weather packets the latest 10 day(s).

<< 49 50 51 52 53 54 55 >>
Time Temp. Humidity Pressure Rain* Wind** Luminosity Snow
1777415060 8.89° C 40% 1019.4 hPa 0 mm - - -
1777414458 9.44° C 39% 1019.6 hPa 0 mm - - -
1777413857 10.56° C 35% 1019.4 hPa 0 mm - - -
1777413256 9.44° C 37% 1019.4 hPa 0 mm - - -
1777412654 9.44° C 36% 1019.6 hPa 0 mm - - -
1777412053 9.44° C 36% 1019.6 hPa 0 mm - - -
1777411451 9.44° C 32% 1019.7 hPa 0 mm - - -
1777410850 9.44° C 42% 1019.7 hPa 0 mm - - -
1777410249 9.44° C 38% 1019.8 hPa 0 mm - - -
1777409647 8.33° C 39% 1019.8 hPa 0 mm - - -
1777409046 8.33° C 43% 1019.9 hPa 0 mm - - -
1777408445 10° C 37% 1019.8 hPa 0 mm - - -
1777407843 8.33° C 46% 1019.9 hPa 0 mm - - -
1777407242 7.78° C 43% 1020.1 hPa 0 mm - - -
1777406640 8.33° C 40% 1019.9 hPa 0 mm - - -
1777406039 6.67° C 46% 1019.9 hPa 0 mm - - -
1777405438 7.22° C 49% 1020.2 hPa 0 mm - - -
1777404836 7.78° C 45% 1019.8 hPa 0 mm - - -
1777404235 7.78° C 43% 1019.9 hPa 0 mm - - -
1777403634 9.44° C 40% 1019.8 hPa 0 mm - - -
1777403032 8.89° C 41% 1019.9 hPa 0 mm - - -
1777402431 8.33° C 46% 1020.2 hPa 0 mm - - -
1777401834 8.33° C 45% 1020.1 hPa 0 mm - - -
1777401228 8.33° C 47% 1020.1 hPa 0 mm - - -
1777400627 8.89° C 44% 1020.2 hPa 0 mm - - -

* Rain latest hour (hover to see other rain measurements)
** Current wind speed in m/s (hover to see current wind gust speed)